Time;durP1;ratioP1;P1;durP2;ratioP2;P2;SDS_P1;SDS_P2;PMS_P1;PMS_P2;Temp;Humidity;BMP_temperature;BMP_pressure;BME280_temperature;BME280_humidity;BME280_pressure;Samples;Min_cycle;Max_cycle;Signal;HPM_P1;HPM_P2
2023/11/27 00:02:24;;;;;;;5.77;4.57;;;2.50;99.90;2.10;99952.00;;;;4955537;28;88495;-69
2023/11/27 00:04:50;;;;;;;5.97;4.30;;;2.40;99.90;2.10;99944.00;;;;4954323;28;108450;-69
2023/11/27 00:07:15;;;;;;;8.30;4.30;;;2.40;99.90;2.10;99952.00;;;;4952372;28;99557;-70
2023/11/27 00:09:41;;;;;;;9.00;4.30;;;2.30;99.90;2.10;99953.00;;;;4957618;28;116001;-69
2023/11/27 00:12:08;;;;;;;6.17;4.67;;;2.40;99.90;2.00;99951.00;;;;4952149;28;115088;-69
2023/11/27 00:14:34;;;;;;;5.57;3.90;;;2.30;99.90;2.00;99949.00;;;;4956185;28;98700;-69
2023/11/27 00:16:59;;;;;;;3.47;3.10;;;2.40;99.90;2.10;99958.00;;;;4955443;28;97680;-69
2023/11/27 00:19:25;;;;;;;4.93;3.80;;;2.30;99.90;2.00;99948.00;;;;4953708;28;88120;-70
2023/11/27 00:21:51;;;;;;;4.07;3.53;;;2.30;99.90;2.00;99955.00;;;;4949122;28;104809;-69
2023/11/27 00:24:17;;;;;;;9.03;5.03;;;2.30;99.90;2.00;99953.00;;;;4953129;28;111604;-69
2023/11/27 00:26:43;;;;;;;5.33;4.03;;;2.30;99.90;2.00;99946.00;;;;4958779;28;88059;-69
2023/11/27 00:29:09;;;;;;;6.80;3.70;;;2.20;99.90;2.00;99936.00;;;;4950322;28;117705;-69
2023/11/27 00:31:34;;;;;;;4.07;3.77;;;2.20;99.90;2.00;99939.00;;;;4954294;28;88905;-69
2023/11/27 00:34:00;;;;;;;3.93;2.63;;;2.30;99.90;2.00;99947.00;;;;4952970;28;87279;-69
2023/11/27 00:36:26;;;;;;;2.97;2.73;;;2.20;99.90;2.00;99933.00;;;;4948265;28;88100;-69
2023/11/27 00:38:52;;;;;;;4.60;3.07;;;2.20;99.90;1.90;99939.00;;;;4937891;28;116925;-69
2023/11/27 00:41:18;;;;;;;4.83;3.67;;;2.20;99.90;1.90;99929.00;;;;4951279;28;116650;-69
2023/11/27 00:43:45;;;;;;;4.03;3.10;;;2.20;99.90;1.90;99929.00;;;;4951385;28;110922;-69
2023/11/27 00:46:12;;;;;;;4.60;3.67;;;2.00;99.90;1.80;99913.00;;;;4951187;28;88212;-69
2023/11/27 00:48:37;;;;;;;4.00;3.60;;;2.10;99.90;1.80;99917.00;;;;4952349;28;87872;-70
2023/11/27 00:51:05;;;;;;;4.87;3.30;;;1.80;99.90;1.80;99916.00;;;;4930889;28;87902;-70
2023/11/27 00:53:30;;;;;;;4.97;3.77;;;2.00;99.90;1.80;99921.00;;;;4947033;28;96135;-69
2023/11/27 00:55:59;;;;;;;5.63;4.23;;;2.00;99.90;1.70;99917.00;;;;4950250;28;108868;-70
2023/11/27 00:58:25;;;;;;;4.20;3.47;;;2.00;99.90;1.80;99920.00;;;;4954755;28;117261;-69
2023/11/27 01:00:54;;;;;;;7.50;4.47;;;1.90;99.90;1.70;99917.00;;;;4948369;28;115368;-69
2023/11/27 01:03:20;;;;;;;7.00;3.90;;;2.00;99.90;1.70;99914.00;;;;4954951;28;87851;-69
2023/11/27 01:05:46;;;;;;;4.57;3.73;;;2.10;99.90;1.70;99921.00;;;;4951450;28;107902;-69
2023/11/27 01:08:14;;;;;;;6.83;4.63;;;2.00;99.90;1.70;99914.00;;;;4951776;28;117743;-70
2023/11/27 01:10:41;;;;;;;6.03;3.87;;;2.00;99.90;1.80;99930.00;;;;4949716;28;88032;-69
2023/11/27 01:13:11;;;;;;;5.67;3.90;;;2.00;99.90;1.80;99918.00;;;;4949499;28;87938;-69
2023/11/27 01:15:37;;;;;;;5.30;4.47;;;2.10;99.90;1.80;99923.00;;;;4954175;28;87941;-69
2023/11/27 01:18:03;;;;;;;5.33;3.43;;;2.10;99.90;1.80;99909.00;;;;4948843;28;116512;-70
2023/11/27 01:20:29;;;;;;;5.33;4.10;;;2.10;99.90;1.90;99913.00;;;;4952718;28;116425;-69
2023/11/27 01:22:55;;;;;;;6.03;4.23;;;2.10;99.90;1.90;99904.00;;;;4957658;28;87374;-69
2023/11/27 01:25:21;;;;;;;6.57;5.07;;;2.10;99.90;2.00;99911.00;;;;4952611;28;87746;-69
2023/11/27 01:27:47;;;;;;;4.37;3.97;;;2.20;99.90;2.00;99900.00;;;;4954526;28;88462;-68
2023/11/27 01:30:15;;;;;;;7.43;3.70;;;2.30;99.90;1.90;99894.00;;;;4955879;28;101858;-68
2023/11/27 01:32:43;;;;;;;7.53;4.17;;;2.20;99.90;1.90;99902.00;;;;4950148;28;87850;-69
2023/11/27 01:35:08;;;;;;;7.10;4.20;;;2.20;99.90;1.90;99895.00;;;;4948742;28;87742;-69
2023/11/27 01:37:34;;;;;;;6.90;4.37;;;2.20;99.90;1.90;99887.00;;;;4952359;28;109089;-69
2023/11/27 01:40:00;;;;;;;6.80;4.03;;;2.30;99.90;1.90;99884.00;;;;4955326;28;118139;-69
2023/11/27 01:42:26;;;;;;;4.60;3.67;;;2.30;99.90;1.90;99888.00;;;;4953556;28;110370;-69
2023/11/27 01:44:51;;;;;;;8.20;4.43;;;2.20;99.90;1.90;99885.00;;;;4952236;28;87726;-69
2023/11/27 01:47:18;;;;;;;6.47;4.43;;;2.20;99.90;1.90;99882.00;;;;4949588;28;116806;-69
2023/11/27 01:49:45;;;;;;;3.77;3.43;;;2.10;99.90;1.80;99876.00;;;;4952718;28;105046;-69
2023/11/27 01:52:12;;;;;;;4.50;3.57;;;2.10;99.90;1.80;99883.00;;;;4957440;28;89535;-69
2023/11/27 01:54:40;;;;;;;8.60;5.10;;;2.10;99.90;1.80;99877.00;;;;4965401;28;89003;-69
2023/11/27 01:57:07;;;;;;;4.40;3.53;;;2.00;99.90;1.80;99884.00;;;;4951981;28;89414;-69
2023/11/27 01:59:33;;;;;;;7.80;4.80;;;2.00;99.90;1.80;99880.00;;;;4954637;28;118528;-69
2023/11/27 02:01:59;;;;;;;5.77;4.03;;;2.10;99.90;1.80;99868.00;;;;4958591;28;87834;-69
2023/11/27 02:04:26;;;;;;;4.87;4.37;;;2.00;99.90;1.80;99870.00;;;;4946936;28;107426;-69
2023/11/27 02:06:52;;;;;;;5.33;3.67;;;2.00;99.90;1.80;99864.00;;;;4951190;28;110373;-69
2023/11/27 02:09:18;;;;;;;5.63;3.73;;;1.90;99.90;1.80;99858.00;;;;4949319;28;118650;-69
2023/11/27 02:11:49;;;;;;;6.63;3.30;;;2.00;99.90;1.80;99862.00;;;;4950979;28;109197;-69
2023/11/27 02:14:16;;;;;;;6.83;4.03;;;2.00;99.90;1.80;99860.00;;;;4938113;28;87721;-69
2023/11/27 02:16:48;;;;;;;9.10;3.40;;;2.10;99.90;1.80;99861.00;;;;4956761;28;89692;-69
2023/11/27 02:19:14;;;;;;;5.37;3.67;;;2.10;99.90;1.80;99858.00;;;;4946457;28;91195;-69
2023/11/27 02:21:45;;;;;;;4.13;2.83;;;2.00;99.90;1.80;99862.00;;;;4950878;28;87816;-69
2023/11/27 02:24:11;;;;;;;4.33;3.20;;;2.00;99.90;1.70;99863.00;;;;4946614;28;87967;-71
2023/11/27 02:26:37;;;;;;;4.87;3.53;;;2.10;99.90;1.80;99870.00;;;;4953378;28;88765;-69
2023/11/27 02:29:03;;;;;;;6.30;4.00;;;2.00;99.90;1.80;99857.00;;;;4950720;28;95228;-69
2023/11/27 02:31:30;;;;;;;7.53;3.90;;;2.00;99.90;1.80;99859.00;;;;4949192;28;89735;-68
2023/11/27 02:33:56;;;;;;;4.20;3.63;;;2.00;99.90;1.80;99851.00;;;;4951343;28;88186;-69
2023/11/27 02:36:25;;;;;;;5.27;3.50;;;2.00;99.90;1.80;99853.00;;;;4946882;28;109755;-68
2023/11/27 02:38:50;;;;;;;4.20;3.67;;;2.10;99.90;1.80;99858.00;;;;4950193;28;108890;-69
2023/11/27 02:41:16;;;;;;;4.10;3.03;;;2.10;99.90;1.80;99859.00;;;;4952769;28;109093;-70
2023/11/27 02:43:42;;;;;;;9.27;4.17;;;2.20;99.90;1.90;99870.00;;;;4951030;28;90355;-69
2023/11/27 02:46:08;;;;;;;5.73;3.33;;;2.10;99.90;1.90;99853.00;;;;4944755;28;117062;-69
2023/11/27 02:48:34;;;;;;;6.27;4.13;;;2.60;99.90;1.90;99856.00;;;;4952285;28;115474;-70
2023/11/27 02:50:59;;;;;;;5.40;4.23;;;2.70;99.90;1.80;99851.00;;;;4948680;28;111116;-70
2023/11/27 02:53:25;;;;;;;6.60;4.60;;;2.80;99.90;1.80;99853.00;;;;4949569;28;110017;-70
2023/11/27 02:55:52;;;;;;;5.47;3.73;;;2.10;99.90;1.80;99855.00;;;;4947201;28;116963;-70
2023/11/27 02:58:17;;;;;;;7.80;4.73;;;2.10;99.90;1.80;99850.00;;;;4952549;28;88607;-69
2023/11/27 03:00:43;;;;;;;3.67;3.20;;;2.10;99.90;1.80;99858.00;;;;4947317;28;109786;-69
2023/11/27 03:03:09;;;;;;;4.47;3.07;;;2.10;99.90;1.70;99849.00;;;;4946872;28;94556;-70
2023/11/27 03:05:35;;;;;;;5.33;4.03;;;2.00;99.90;1.70;99842.00;;;;4951114;28;102647;-71
2023/11/27 03:08:02;;;;;;;5.03;3.70;;;2.00;99.90;1.70;99846.00;;;;4950386;28;88933;-71
2023/11/27 03:10:28;;;;;;;5.47;4.30;;;2.00;99.90;1.70;99838.00;;;;4955861;28;88254;-71
2023/11/27 03:12:54;;;;;;;6.17;4.43;;;2.00;99.90;1.70;99836.00;;;;4949550;28;87798;-70
2023/11/27 03:15:20;;;;;;;5.40;3.43;;;2.10;99.90;1.70;99833.00;;;;4950330;28;118345;-70
2023/11/27 03:17:46;;;;;;;4.70;4.03;;;1.90;99.90;1.70;99825.00;;;;4951687;28;87832;-70
2023/11/27 03:20:13;;;;;;;3.90;3.57;;;1.90;99.90;1.60;99825.00;;;;4950532;28;100424;-70
2023/11/27 03:22:39;;;;;;;5.07;3.37;;;1.90;99.90;1.60;99828.00;;;;4950348;28;87821;-70
2023/11/27 03:25:06;;;;;;;5.67;4.07;;;1.90;99.90;1.60;99820.00;;;;4953699;28;107368;-71
2023/11/27 03:27:32;;;;;;;5.87;3.87;;;1.90;99.90;1.60;99824.00;;;;4951673;28;87967;-71
2023/11/27 03:29:57;;;;;;;7.13;4.50;;;1.90;99.90;1.60;99822.00;;;;4950988;28;87947;-71
2023/11/27 03:32:23;;;;;;;5.67;4.17;;;1.90;99.90;1.60;99820.00;;;;4950529;28;91310;-71
2023/11/27 03:34:49;;;;;;;4.60;4.17;;;1.80;99.90;1.60;99810.00;;;;4948123;28;88568;-72
2023/11/27 03:37:14;;;;;;;7.60;4.60;;;1.90;99.90;1.60;99819.00;;;;4951627;28;117915;-72
2023/11/27 03:39:40;;;;;;;5.57;3.90;;;1.80;99.90;1.60;99821.00;;;;4950504;28;109713;-72
2023/11/27 03:42:06;;;;;;;4.53;3.90;;;1.90;99.90;1.60;99806.00;;;;4949257;28;108727;-72
2023/11/27 03:44:32;;;;;;;3.57;3.27;;;1.90;99.90;1.60;99804.00;;;;4953190;28;117702;-73
2023/11/27 03:46:57;;;;;;;4.10;3.57;;;2.10;99.90;1.60;99809.00;;;;4939987;28;90085;-71
2023/11/27 03:49:23;;;;;;;6.27;4.83;;;1.80;99.90;1.60;99806.00;;;;4950843;28;108014;-72
2023/11/27 03:51:49;;;;;;;5.63;3.97;;;1.90;99.90;1.60;99800.00;;;;4953543;28;108699;-72
2023/11/27 03:54:15;;;;;;;5.67;4.33;;;1.90;99.90;1.70;99804.00;;;;4949338;28;117664;-72
2023/11/27 03:56:41;;;;;;;6.57;4.57;;;1.80;99.90;1.70;99797.00;;;;4956576;28;118370;-72
2023/11/27 03:59:07;;;;;;;6.47;4.80;;;2.00;99.90;1.70;99796.00;;;;4957702;28;87754;-72
2023/11/27 04:01:32;;;;;;;6.03;4.57;;;2.00;99.90;1.70;99793.00;;;;4953672;28;87767;-72
2023/11/27 04:03:59;;;;;;;4.33;3.37;;;2.00;99.90;1.70;99791.00;;;;4953428;28;117178;-72
2023/11/27 04:06:31;;;;;;;6.50;3.87;;;1.70;99.90;1.70;99789.00;;;;4955633;28;87954;-73
2023/11/27 04:08:58;;;;;;;5.03;4.07;;;2.00;99.90;1.70;99784.00;;;;4949676;28;88205;-73
2023/11/27 04:11:27;;;;;;;5.97;4.10;;;2.00;99.90;1.70;99786.00;;;;4951279;28;88292;-73
2023/11/27 04:13:57;;;;;;;6.00;3.80;;;2.00;99.90;1.70;99778.00;;;;4953566;28;88218;-73
2023/11/27 04:16:23;;;;;;;6.00;4.10;;;2.00;99.90;1.70;99782.00;;;;4949142;28;88100;-73
2023/11/27 04:18:50;;;;;;;7.83;3.97;;;2.00;99.90;1.70;99775.00;;;;4950094;28;105325;-73
2023/11/27 04:21:19;;;;;;;6.60;4.43;;;2.00;99.90;1.70;99772.00;;;;4956637;28;88676;-74
2023/11/27 04:23:48;;;;;;;4.33;3.73;;;2.60;99.90;1.70;99772.00;;;;4956374;28;88263;-75
2023/11/27 04:26:16;;;;;;;6.47;5.30;;;2.00;99.90;1.80;99760.00;;;;4951262;28;118750;-75
2023/11/27 04:28:43;;;;;;;5.80;3.37;;;2.00;99.90;1.70;99764.00;;;;4953530;28;101921;-77
2023/11/27 04:31:08;;;;;;;5.57;4.83;;;2.10;99.90;1.70;99773.00;;;;4942698;28;87905;-75
2023/11/27 04:33:35;;;;;;;7.30;4.40;;;2.00;99.90;1.70;99756.00;;;;4949996;28;117465;-77
2023/11/27 04:36:01;;;;;;;5.40;4.33;;;2.00;99.90;1.80;99760.00;;;;4937526;28;91852;-77
2023/11/27 04:38:27;;;;;;;5.47;4.23;;;2.80;99.90;1.80;99757.00;;;;4957388;28;87271;-76
2023/11/27 04:40:53;;;;;;;5.80;3.53;;;2.00;99.90;1.80;99746.00;;;;4956662;28;87586;-76
2023/11/27 04:43:19;;;;;;;6.77;4.00;;;2.20;99.90;1.80;99753.00;;;;4955204;28;117241;-76
2023/11/27 04:45:44;;;;;;;5.47;3.50;;;2.50;99.90;1.80;99754.00;;;;4951066;28;117126;-75
2023/11/27 04:48:10;;;;;;;5.37;4.27;;;2.10;99.90;1.90;99754.00;;;;4952158;28;109982;-74
2023/11/27 04:50:36;;;;;;;6.77;4.93;;;2.10;99.90;1.90;99749.00;;;;4952947;28;94107;-74
2023/11/27 04:53:02;;;;;;;6.90;4.27;;;2.10;99.90;1.90;99764.00;;;;4948616;28;117696;-76
2023/11/27 04:55:27;;;;;;;5.93;4.40;;;2.10;99.90;1.90;99752.00;;;;4950608;28;88082;-76
2023/11/27 04:57:53;;;;;;;5.97;4.20;;;2.20;99.90;1.90;99754.00;;;;4948206;28;110972;-76
2023/11/27 05:00:19;;;;;;;5.10;4.40;;;2.10;99.90;1.90;99753.00;;;;4946708;28;108541;-76
2023/11/27 05:02:44;;;;;;;5.10;4.60;;;2.10;99.90;1.90;99750.00;;;;4953340;28;90275;-77
2023/11/27 05:05:14;;;;;;;6.17;4.53;;;3.10;99.90;1.90;99752.00;;;;4947565;28;117016;-77
2023/11/27 05:07:41;;;;;;;9.57;5.37;;;2.20;99.90;1.90;99749.00;;;;4953523;28;87769;-76
2023/11/27 05:10:07;;;;;;;8.73;4.67;;;2.10;99.90;1.90;99746.00;;;;4948221;28;88891;-76
2023/11/27 05:12:33;;;;;;;5.97;4.53;;;2.50;99.90;1.90;99754.00;;;;4953468;28;88585;-76
2023/11/27 05:14:59;;;;;;;5.70;4.53;;;1.90;99.90;1.90;99745.00;;;;4946287;28;107883;-76
2023/11/27 05:17:25;;;;;;;6.73;4.90;;;2.20;99.90;1.90;99748.00;;;;4952912;28;87855;-77
2023/11/27 05:19:50;;;;;;;3.87;3.20;;;2.10;99.90;1.90;99742.00;;;;4955285;28;107775;-76
2023/11/27 05:22:16;;;;;;;6.67;5.33;;;2.10;99.90;1.90;99744.00;;;;4934015;28;90435;-76
2023/11/27 05:24:45;;;;;;;8.33;5.33;;;2.10;99.90;1.90;99739.00;;;;4949251;28;116294;-76
2023/11/27 05:27:10;;;;;;;10.87;5.63;;;2.20;99.90;1.90;99740.00;;;;4931399;28;110515;-77
2023/11/27 05:29:36;;;;;;;8.67;5.27;;;2.20;99.90;1.90;99723.00;;;;4950897;28;108605;-76
2023/11/27 05:32:07;;;;;;;6.33;4.93;;;2.20;99.90;1.90;99733.00;;;;4946383;28;117951;-76
2023/11/27 05:34:36;;;;;;;4.93;3.80;;;2.10;99.90;1.90;99733.00;;;;4962898;28;88952;-76
2023/11/27 05:37:03;;;;;;;7.17;4.83;;;2.20;99.90;2.00;99723.00;;;;4931112;28;88167;-75
2023/11/27 05:39:29;;;;;;;7.97;4.27;;;2.30;99.90;2.00;99724.00;;;;4952930;28;88057;-76
2023/11/27 05:41:57;;;;;;;5.63;4.77;;;2.20;99.90;2.00;99726.00;;;;4948365;28;87850;-75
2023/11/27 05:44:24;;;;;;;7.50;4.87;;;2.70;99.90;2.00;99723.00;;;;4946499;28;89271;-76
2023/11/27 05:46:49;;;;;;;9.50;6.37;;;2.30;99.90;2.10;99724.00;;;;4946230;28;102831;-75
2023/11/27 05:49:15;;;;;;;7.43;5.70;;;2.30;99.90;2.10;99721.00;;;;4943264;28;87845;-76
2023/11/27 05:51:41;;;;;;;8.40;5.33;;;2.30;99.90;2.10;99715.00;;;;4946340;28;87997;-75
2023/11/27 05:54:09;;;;;;;8.90;6.00;;;2.40;99.90;2.10;99717.00;;;;4945666;28;89288;-78
2023/11/27 05:56:35;;;;;;;10.07;5.13;;;2.30;99.90;2.10;99714.00;;;;4950055;28;91576;-76
2023/11/27 05:59:00;;;;;;;6.20;4.63;;;2.30;99.90;2.10;99718.00;;;;4933011;28;109244;-76
2023/11/27 06:01:26;;;;;;;6.40;4.33;;;3.20;99.90;2.10;99699.00;;;;4950335;28;115936;-76
2023/11/27 06:03:52;;;;;;;11.60;6.00;;;2.30;99.90;2.10;99718.00;;;;4948238;28;115487;-77
2023/11/27 06:06:17;;;;;;;7.13;5.47;;;2.30;99.90;2.00;99712.00;;;;4953950;28;109407;-76
2023/11/27 06:08:44;;;;;;;5.57;5.00;;;2.30;99.90;2.00;99711.00;;;;4947603;28;107807;-77
2023/11/27 06:11:11;;;;;;;7.83;4.60;;;2.30;99.90;2.00;99717.00;;;;4948624;28;88740;-77
2023/11/27 06:13:37;;;;;;;9.60;5.53;;;2.80;99.90;2.00;99714.00;;;;4952926;28;89464;-76
2023/11/27 06:16:03;;;;;;;7.30;5.80;;;2.30;99.90;2.00;99720.00;;;;4953447;28;87010;-77
2023/11/27 06:18:29;;;;;;;6.50;4.67;;;2.20;99.90;2.00;99710.00;;;;4948333;28;87718;-76
2023/11/27 06:21:02;;;;;;;5.10;3.90;;;2.20;99.90;2.00;99713.00;;;;4955048;28;88607;-76
2023/11/27 06:23:27;;;;;;;7.80;5.03;;;2.10;99.90;1.90;99707.00;;;;4953581;28;89020;-76
2023/11/27 06:25:53;;;;;;;8.03;4.83;;;2.30;99.90;2.00;99713.00;;;;4965287;28;110458;-76
2023/11/27 06:28:18;;;;;;;7.03;4.53;;;2.70;99.90;2.00;99710.00;;;;4949274;28;109141;-76
2023/11/27 06:30:44;;;;;;;8.10;4.30;;;2.20;99.90;2.00;99716.00;;;;4948681;28;117375;-77
2023/11/27 06:33:10;;;;;;;9.87;5.83;;;2.20;99.90;2.00;99709.00;;;;4950949;28;117065;-76
2023/11/27 06:35:35;;;;;;;10.63;6.10;;;2.20;99.90;2.00;99711.00;;;;4949003;28;109687;-76
2023/11/27 06:38:04;;;;;;;8.57;6.13;;;2.20;99.90;2.00;99709.00;;;;4953170;28;108285;-75
2023/11/27 06:40:30;;;;;;;11.07;7.27;;;2.20;99.90;2.00;99703.00;;;;4953154;28;105315;-75
2023/11/27 06:42:56;;;;;;;7.93;5.43;;;2.40;99.90;2.00;99710.00;;;;4951157;28;87939;-75
2023/11/27 06:45:22;;;;;;;6.60;5.60;;;2.30;99.90;2.00;99703.00;;;;4951521;28;87950;-75
2023/11/27 06:47:48;;;;;;;8.13;5.03;;;2.30;99.90;2.10;99703.00;;;;4949093;28;89522;-75
2023/11/27 06:50:15;;;;;;;6.03;5.37;;;2.30;99.90;2.00;99702.00;;;;4950281;28;90411;-75
2023/11/27 06:52:43;;;;;;;7.40;4.90;;;2.40;99.90;2.00;99695.00;;;;4950930;28;90310;-74
2023/11/27 06:55:09;;;;;;;7.03;4.87;;;2.30;99.90;2.00;99696.00;;;;4950992;28;87734;-74
2023/11/27 06:57:35;;;;;;;10.07;5.87;;;3.10;99.90;2.00;99703.00;;;;4932667;28;103118;-74
2023/11/27 07:00:02;;;;;;;10.93;7.30;;;2.20;99.90;2.10;99707.00;;;;4937142;28;112768;-74
2023/11/27 07:02:30;;;;;;;9.43;6.80;;;2.90;99.90;2.10;99692.00;;;;4959584;28;88181;-73
2023/11/27 07:04:57;;;;;;;9.37;5.97;;;2.30;99.90;2.10;99692.00;;;;4946397;28;87148;-75
2023/11/27 07:07:26;;;;;;;7.27;5.50;;;2.30;99.90;2.10;99700.00;;;;4952067;28;87884;-75
2023/11/27 07:09:56;;;;;;;9.60;4.77;;;2.30;99.90;2.10;99690.00;;;;4949817;28;104519;-75
2023/11/27 07:12:22;;;;;;;8.00;6.07;;;2.30;99.90;2.10;99696.00;;;;4936831;28;89005;-76
2023/11/27 07:14:50;;;;;;;9.90;6.83;;;2.90;99.90;2.10;99694.00;;;;4945270;28;87994;-75
2023/11/27 07:17:16;;;;;;;5.37;4.83;;;3.20;99.90;2.10;99685.00;;;;4947155;28;88700;-75
2023/11/27 07:19:42;;;;;;;7.23;4.70;;;2.30;99.90;2.10;99692.00;;;;4951606;28;116008;-74
2023/11/27 07:22:08;;;;;;;10.23;6.67;;;3.30;99.90;2.10;99692.00;;;;4950420;28;88118;-75
2023/11/27 07:24:34;;;;;;;5.87;5.27;;;2.30;99.90;2.10;99690.00;;;;4949953;28;94838;-75
2023/11/27 07:27:02;;;;;;;8.27;4.20;;;2.30;99.90;2.00;99683.00;;;;4953056;28;101538;-74
2023/11/27 07:29:28;;;;;;;8.60;5.30;;;2.30;99.90;2.00;99684.00;;;;4953623;28;87416;-74
2023/11/27 07:31:54;;;;;;;5.63;4.53;;;2.20;99.90;2.00;99685.00;;;;4958044;28;88042;-73
2023/11/27 07:34:21;;;;;;;7.20;4.80;;;2.60;99.90;2.00;99681.00;;;;4953272;28;87910;-74
2023/11/27 07:36:48;;;;;;;5.63;4.97;;;2.20;99.90;2.00;99687.00;;;;4935545;28;88914;-74
2023/11/27 07:39:13;;;;;;;6.87;5.27;;;3.10;99.90;2.00;99687.00;;;;4951934;28;89768;-74
2023/11/27 07:41:39;;;;;;;4.47;3.53;;;2.30;99.90;2.00;99698.00;;;;4953018;28;107380;-74
2023/11/27 07:44:05;;;;;;;5.83;4.10;;;2.20;99.90;2.00;99678.00;;;;4955061;28;87928;-74
2023/11/27 07:46:31;;;;;;;8.83;4.67;;;1.70;99.90;2.00;99675.00;;;;4954531;28;88773;-74
2023/11/27 07:48:56;;;;;;;7.30;4.87;;;2.30;99.90;2.00;99679.00;;;;4957017;28;102163;-74
2023/11/27 07:51:22;;;;;;;5.10;4.60;;;2.30;99.90;2.00;99684.00;;;;4938574;28;117871;-75
2023/11/27 07:53:48;;;;;;;5.57;4.27;;;2.30;99.90;2.00;99680.00;;;;4951208;28;87123;-74
2023/11/27 07:56:24;;;;;;;6.03;4.67;;;2.30;99.90;2.10;99688.00;;;;4950502;28;88297;-75
2023/11/27 07:59:00;;;;;;;9.10;6.70;;;2.20;99.90;2.10;99681.00;;;;4953625;28;87924;-75
2023/11/27 08:01:25;;;;;;;9.80;8.17;;;2.30;99.90;2.10;99681.00;;;;4937308;28;88799;-75
2023/11/27 08:03:51;;;;;;;5.73;4.47;;;3.80;99.90;2.10;99672.00;;;;4956800;28;88075;-75
2023/11/27 08:06:20;;;;;;;5.67;3.83;;;2.90;99.90;2.10;99675.00;;;;4952861;28;106919;-75
2023/11/27 08:08:47;;;;;;;5.03;4.23;;;2.40;99.90;2.10;99676.00;;;;4955478;28;88027;-75
2023/11/27 08:11:12;;;;;;;7.07;3.87;;;2.30;99.90;2.10;99666.00;;;;4951606;28;88090;-74
2023/11/27 08:13:45;;;;;;;5.30;3.90;;;2.30;99.90;2.10;99672.00;;;;4950619;28;87896;-74
2023/11/27 08:16:11;;;;;;;5.27;3.67;;;2.40;99.90;2.10;99669.00;;;;4954889;28;88126;-74
2023/11/27 08:18:39;;;;;;;5.03;3.23;;;2.40;99.90;2.20;99656.00;;;;4939447;28;89921;-74
2023/11/27 08:21:06;;;;;;;5.67;4.50;;;2.40;99.90;2.20;99651.00;;;;4950308;28;88778;-76
2023/11/27 08:23:34;;;;;;;7.47;3.23;;;2.40;99.90;2.20;99656.00;;;;4951031;28;88284;-74
2023/11/27 08:26:03;;;;;;;6.20;4.13;;;2.40;99.90;2.20;99647.00;;;;4951697;28;88755;-76
2023/11/27 08:28:29;;;;;;;5.83;3.63;;;2.60;99.90;2.30;99664.00;;;;4956395;28;88053;-74
2023/11/27 08:30:55;;;;;;;5.90;3.73;;;2.40;99.90;2.30;99650.00;;;;4950317;28;87962;-75
2023/11/27 08:33:20;;;;;;;4.53;3.00;;;2.50;99.90;2.40;99648.00;;;;4955802;28;109671;-76
2023/11/27 08:35:46;;;;;;;4.87;3.43;;;2.70;99.90;2.40;99642.00;;;;4956916;28;107600;-75
2023/11/27 08:38:12;;;;;;;6.10;4.30;;;2.60;99.90;2.40;99633.00;;;;4954232;28;117149;-75
2023/11/27 08:40:38;;;;;;;4.60;3.37;;;2.60;99.90;2.40;99642.00;;;;4935997;28;116791;-76
2023/11/27 08:43:04;;;;;;;3.40;2.40;;;2.70;99.90;2.50;99639.00;;;;4953495;28;87212;-76
2023/11/27 08:45:29;;;;;;;7.10;4.00;;;2.90;99.90;2.50;99637.00;;;;4953492;28;91208;-75
2023/11/27 08:47:55;;;;;;;4.10;3.00;;;2.70;99.90;2.50;99636.00;;;;4953437;28;116812;-76
2023/11/27 08:50:24;;;;;;;5.80;3.40;;;2.70;99.90;2.50;99632.00;;;;4941139;28;89751;-77
2023/11/27 08:52:50;;;;;;;4.43;3.17;;;2.80;99.90;2.60;99633.00;;;;4956717;28;87723;-76
2023/11/27 08:55:18;;;;;;;7.57;3.73;;;2.70;99.90;2.60;99627.00;;;;4959115;28;97877;-78
2023/11/27 08:57:47;;;;;;;4.37;3.23;;;2.70;99.90;2.70;99627.00;;;;4951086;28;89584;-77
2023/11/27 09:00:20;;;;;;;4.97;3.27;;;2.80;99.90;2.70;99613.00;;;;4952010;28;88275;-77
2023/11/27 09:02:48;;;;;;;4.80;3.37;;;2.60;99.90;2.70;99623.00;;;;4954810;28;87919;-78
2023/11/27 09:05:14;;;;;;;4.17;3.10;;;3.00;99.90;2.70;99620.00;;;;4945806;28;88036;-75
2023/11/27 09:07:39;;;;;;;3.17;2.80;;;3.00;99.90;2.70;99611.00;;;;4957771;28;87942;-76
2023/11/27 09:10:07;;;;;;;5.67;3.40;;;2.80;99.90;2.70;99618.00;;;;4944410;28;89980;-77
2023/11/27 09:12:33;;;;;;;4.00;2.57;;;3.00;99.90;2.70;99618.00;;;;4956879;28;88126;-77
2023/11/27 09:14:59;;;;;;;4.13;3.23;;;2.90;99.90;2.70;99618.00;;;;4951567;28;102768;-77
2023/11/27 09:17:25;;;;;;;3.43;3.13;;;2.90;99.90;2.70;99620.00;;;;4944730;28;88598;-77
2023/11/27 09:19:51;;;;;;;4.03;2.53;;;2.90;99.90;2.70;99618.00;;;;4949994;28;117497;-77
2023/11/27 09:22:21;;;;;;;2.87;2.40;;;3.20;99.90;2.70;99618.00;;;;4952747;28;87753;-76
2023/11/27 09:24:47;;;;;;;4.60;3.00;;;2.90;99.90;2.80;99621.00;;;;4948832;28;87803;-76
2023/11/27 09:27:13;;;;;;;4.97;3.33;;;2.90;99.90;2.80;99619.00;;;;4948851;28;88584;-77
2023/11/27 09:29:39;;;;;;;3.83;3.10;;;3.90;99.90;2.80;99606.00;;;;4947029;28;104636;-76
2023/11/27 09:32:05;;;;;;;3.53;2.67;;;3.00;99.90;2.80;99603.00;;;;4945648;28;108304;-77
2023/11/27 09:34:31;;;;;;;3.77;2.73;;;3.00;99.90;2.80;99606.00;;;;4948459;28;88036;-77
2023/11/27 09:36:57;;;;;;;5.73;2.37;;;3.10;99.90;2.80;99603.00;;;;4938237;28;117253;-77
2023/11/27 09:39:23;;;;;;;4.70;2.93;;;3.10;99.90;2.90;99596.00;;;;4949489;28;89241;-77
2023/11/27 09:41:49;;;;;;;3.33;2.73;;;3.10;99.90;2.90;99606.00;;;;4947190;28;88244;-78
2023/11/27 09:44:16;;;;;;;5.30;3.57;;;3.10;99.90;3.00;99589.00;;;;4936444;28;109473;-77
2023/11/27 09:46:43;;;;;;;3.77;2.87;;;3.10;99.90;3.00;99590.00;;;;4949688;28;88468;-77
2023/11/27 09:49:15;;;;;;;4.83;2.90;;;3.20;99.90;3.00;99583.00;;;;4946843;28;88370;-76
2023/11/27 09:51:46;;;;;;;4.47;3.13;;;3.80;99.90;3.10;99586.00;;;;4939919;28;87919;-75
2023/11/27 09:54:14;;;;;;;5.97;3.00;;;3.30;99.90;3.10;99588.00;;;;4949323;28;88116;-75
2023/11/27 09:56:41;;;;;;;6.10;2.67;;;3.30;99.90;3.10;99564.00;;;;4949359;28;88342;-75
2023/11/27 09:59:09;;;;;;;4.63;2.87;;;3.40;99.90;3.10;99581.00;;;;4947420;28;117098;-76
2023/11/27 10:01:36;;;;;;;4.87;3.07;;;3.30;99.90;3.10;99563.00;;;;4951481;28;110553;-75
2023/11/27 10:04:07;;;;;;;3.63;2.87;;;3.40;99.90;3.10;99556.00;;;;4951294;28;88883;-75
2023/11/27 10:06:35;;;;;;;3.53;3.23;;;3.30;99.90;3.20;99565.00;;;;4953152;28;88191;-75
2023/11/27 10:09:09;;;;;;;3.07;2.77;;;4.00;99.90;3.20;99546.00;;;;4941766;28;88395;-78
2023/11/27 10:11:36;;;;;;;4.67;2.77;;;3.30;99.90;3.20;99542.00;;;;4948800;28;87671;-78
2023/11/27 10:14:06;;;;;;;3.07;2.70;;;3.50;99.90;3.20;99521.00;;;;4950024;28;88093;-77
2023/11/27 10:16:32;;;;;;;3.27;2.77;;;3.50;99.90;3.20;99536.00;;;;4951717;28;88828;-77
2023/11/27 10:19:06;;;;;;;3.57;3.27;;;3.40;99.90;3.20;99536.00;;;;4949828;28;88518;-75
2023/11/27 10:21:34;;;;;;;2.70;2.10;;;3.50;99.90;3.30;99533.00;;;;4935762;28;87158;-77
2023/11/27 10:24:08;;;;;;;3.17;2.27;;;3.50;99.90;3.30;99538.00;;;;4956270;28;88053;-76
2023/11/27 10:26:37;;;;;;;3.17;2.43;;;3.50;99.90;3.30;99532.00;;;;4955756;28;88201;-77
2023/11/27 10:29:03;;;;;;;2.70;2.50;;;3.70;99.90;3.30;99523.00;;;;4933385;28;89914;-76
2023/11/27 10:31:30;;;;;;;3.57;2.60;;;3.50;99.90;3.40;99523.00;;;;4956754;28;87793;-77
2023/11/27 10:33:57;;;;;;;5.80;3.57;;;3.60;99.90;3.40;99516.00;;;;4955133;28;89737;-74
2023/11/27 10:36:26;;;;;;;2.63;2.43;;;3.60;99.90;3.50;99509.00;;;;4954028;28;87688;-73
2023/11/27 10:39:08;;;;;;;4.70;3.50;;;3.60;99.90;3.50;99504.00;;;;4949216;28;88097;-74
2023/11/27 10:41:34;;;;;;;6.67;3.40;;;3.70;99.90;3.60;99503.00;;;;4951007;28;87769;-74
2023/11/27 10:44:02;;;;;;;5.47;3.27;;;4.40;99.90;3.60;99508.00;;;;4949420;28;99584;-74
2023/11/27 10:46:29;;;;;;;5.30;3.70;;;4.40;99.90;3.70;99505.00;;;;4951743;28;87441;-72
2023/11/27 10:49:01;;;;;;;3.80;2.50;;;3.70;99.90;3.70;99493.00;;;;4947168;28;107191;-72
2023/11/27 10:51:31;;;;;;;3.00;2.57;;;3.90;99.90;3.80;99495.00;;;;4958440;28;87927;-75
2023/11/27 10:54:01;;;;;;;7.90;3.80;;;4.10;99.90;3.80;99494.00;;;;4949985;28;88629;-75
2023/11/27 10:56:31;;;;;;;7.97;5.27;;;4.60;99.90;3.80;99491.00;;;;4944847;28;88213;-75
2023/11/27 10:59:05;;;;;;;7.87;5.20;;;3.90;99.90;3.80;99487.00;;;;4950176;28;112904;-74
2023/11/27 11:01:41;;;;;;;4.73;3.43;;;4.10;99.90;3.90;99493.00;;;;4949078;28;87943;-75
2023/11/27 11:04:26;;;;;;;6.03;4.20;;;4.00;99.90;3.90;99484.00;;;;4950085;28;87806;-75
2023/11/27 11:06:56;;;;;;;4.20;3.23;;;4.10;99.90;3.90;99473.00;;;;4932058;28;90069;-74